Time;durP1;ratioP1;P1;durP2;ratioP2;P2;SDS_P1;SDS_P2;PMS_P1;PMS_P2;Temp;Humidity;BMP_temperature;BMP_pressure;BME280_temperature;BME280_humidity;BME280_pressure;Samples;Min_cycle;Max_cycle;Signal;HPM_P1;HPM_P2
2022/09/15 00:00:37;;;;;;;5.15;2.78;;;;;;;;;;5028508;28;20021;-56
2022/09/15 00:03:03;;;;;;;6.22;2.40;;;;;;;;;;5029909;28;20063;-57
2022/09/15 00:05:28;;;;;;;5.35;2.45;;;;;;;;;;5028054;28;20502;-57
2022/09/15 00:07:53;;;;;;;6.05;2.85;;;;;;;;;;5027779;28;20064;-56
2022/09/15 00:10:19;;;;;;;8.40;2.60;;;;;;;;;;5028368;28;20033;-57
2022/09/15 00:12:44;;;;;;;4.97;2.88;;;;;;;;;;5032392;28;20399;-57
2022/09/15 00:15:13;;;;;;;5.75;2.70;;;;;;;;;;5028761;28;20045;-57
2022/09/15 00:17:39;;;;;;;8.10;3.00;;;;;;;;;;5026898;28;20406;-56
2022/09/15 00:20:06;;;;;;;5.68;2.60;;;;;;;;;;5029842;28;20029;-57
2022/09/15 00:22:31;;;;;;;6.30;2.47;;;;;;;;;;5030072;28;20033;-57
2022/09/15 00:24:57;;;;;;;4.38;2.67;;;;;;;;;;5027595;28;20117;-56
2022/09/15 00:27:22;;;;;;;4.35;2.75;;;;;;;;;;5029411;28;20037;-56
2022/09/15 00:29:47;;;;;;;6.45;2.67;;;;;;;;;;5032492;28;20512;-56
2022/09/15 00:32:13;;;;;;;5.30;3.33;;;;;;;;;;5027658;28;20133;-55
2022/09/15 00:34:38;;;;;;;8.35;2.35;;;;;;;;;;5034095;28;20109;-55
2022/09/15 00:37:03;;;;;;;4.55;2.60;;;;;;;;;;5031146;28;20223;-56
2022/09/15 00:39:29;;;;;;;5.40;2.70;;;;;;;;;;5029694;28;20044;-56
2022/09/15 00:41:54;;;;;;;6.82;2.83;;;;;;;;;;5027332;28;20483;-56
2022/09/15 00:44:35;;;;;;;6.97;2.60;;;;;;;;;;5028244;28;20483;-56
2022/09/15 00:47:02;;;;;;;3.92;2.50;;;;;;;;;;5026731;28;20053;-56
2022/09/15 00:49:31;;;;;;;6.13;2.75;;;;;;;;;;5028554;28;20311;-56
2022/09/15 00:51:59;;;;;;;5.25;2.20;;;;;;;;;;5024894;28;20420;-57
2022/09/15 00:54:55;;;;;;;4.60;2.50;;;;;;;;;;5031449;28;20017;-56
2022/09/15 00:57:40;;;;;;;8.30;2.25;;;;;;;;;;5037536;28;20432;-56
2022/09/15 01:00:10;;;;;;;6.32;2.60;;;;;;;;;;5028835;28;20041;-56
2022/09/15 01:02:36;;;;;;;;;;;;;;;;;;5037008;28;20521;-56
2022/09/15 01:05:06;;;;;;;4.63;2.40;;;;;;;;;;5032723;28;20350;-56
2022/09/15 01:07:47;;;;;;;7.18;2.50;;;;;;;;;;5028605;28;20029;-56
2022/09/15 01:10:41;;;;;;;7.68;2.33;;;;;;;;;;5031010;28;20082;-55
2022/09/15 01:13:10;;;;;;;2.83;2.15;;;;;;;;;;5014358;28;20505;-55
2022/09/15 01:15:48;;;;;;;4.65;2.15;;;;;;;;;;5035823;28;20029;-55
2022/09/15 01:18:21;;;;;;;4.25;2.10;;;;;;;;;;5032317;28;20029;-56
2022/09/15 01:20:49;;;;;;;4.47;1.88;;;;;;;;;;5031308;28;20037;-56
2022/09/15 01:23:35;;;;;;;3.47;2.20;;;;;;;;;;5036143;28;20028;-56
2022/09/15 01:26:29;;;;;;;4.88;2.17;;;;;;;;;;5031724;28;20041;-55
2022/09/15 01:29:13;;;;;;;5.35;1.90;;;;;;;;;;5034467;28;20029;-55
2022/09/15 01:34:38;;;;;;;4.57;1.90;;;;;;;;;;5027476;28;20033;-56
2022/09/15 01:37:08;;;;;;;2.75;1.90;;;;;;;;;;5035180;28;20048;-55
2022/09/15 01:39:41;;;;;;;2.00;1.80;;;;;;;;;;5033045;28;20162;-55
2022/09/15 01:42:10;;;;;;;4.32;1.83;;;;;;;;;;5026000;28;20111;-55
2022/09/15 01:44:54;;;;;;;3.42;2.00;;;;;;;;;;5032059;28;20025;-56
2022/09/15 01:47:21;;;;;;;5.20;1.70;;;;;;;;;;5028244;28;20026;-55
2022/09/15 01:50:23;;;;;;;2.17;1.60;;;;;;;;;;5031645;28;20100;-55
2022/09/15 01:52:53;;;;;;;4.53;2.05;;;;;;;;;;5006593;28;20460;-56
2022/09/15 01:55:27;;;;;;;3.85;1.70;;;;;;;;;;5025892;28;20072;-56
2022/09/15 01:57:52;;;;;;;3.92;1.42;;;;;;;;;;5031168;28;20098;-56
2022/09/15 02:00:18;;;;;;;5.32;1.55;;;;;;;;;;5033463;28;20029;-55
2022/09/15 02:02:50;;;;;;;2.70;1.73;;;;;;;;;;5029544;28;20045;-55
2022/09/15 02:05:32;;;;;;;6.93;1.88;;;;;;;;;;5035945;28;20124;-56
2022/09/15 02:08:03;;;;;;;3.20;1.60;;;;;;;;;;5033469;28;20025;-56
2022/09/15 02:10:39;;;;;;;3.42;1.70;;;;;;;;;;5028794;28;20056;-56
2022/09/15 02:13:10;;;;;;;5.35;1.73;;;;;;;;;;5034606;28;20033;-55
2022/09/15 02:15:51;;;;;;;6.75;2.00;;;;;;;;;;5031535;28;20052;-56
2022/09/15 02:18:31;;;;;;;1.95;1.65;;;;;;;;;;5030132;28;20082;-56
2022/09/15 02:21:09;;;;;;;3.85;1.40;;;;;;;;;;5031493;28;20033;-56
2022/09/15 02:23:42;;;;;;;1.63;1.38;;;;;;;;;;5029381;28;20473;-55
2022/09/15 02:26:12;;;;;;;2.15;1.48;;;;;;;;;;5028448;28;20032;-55
2022/09/15 02:28:40;;;;;;;3.78;1.50;;;;;;;;;;5030065;28;20033;-56
2022/09/15 02:31:09;;;;;;;3.08;1.42;;;;;;;;;;5032958;28;20059;-56
2022/09/15 02:33:41;;;;;;;5.35;1.60;;;;;;;;;;5031797;28;20026;-56
2022/09/15 02:36:08;;;;;;;2.45;1.60;;;;;;;;;;5028857;28;20044;-56
2022/09/15 02:38:40;;;;;;;4.35;1.63;;;;;;;;;;5029620;28;20035;-54
2022/09/15 02:41:05;;;;;;;2.95;1.30;;;;;;;;;;5033181;28;20060;-55
2022/09/15 02:43:31;;;;;;;2.58;1.58;;;;;;;;;;5031364;28;20060;-54
2022/09/15 02:45:56;;;;;;;4.30;2.22;;;;;;;;;;5028387;28;20949;-55
2022/09/15 02:48:24;;;;;;;3.53;1.58;;;;;;;;;;5035306;28;20328;-54
2022/09/15 02:50:49;;;;;;;2.90;1.40;;;;;;;;;;5033997;28;20086;-55
2022/09/15 02:53:15;;;;;;;2.20;1.55;;;;;;;;;;5036743;28;20037;-54
2022/09/15 02:55:40;;;;;;;2.63;1.70;;;;;;;;;;5036587;28;20422;-55
2022/09/15 02:58:06;;;;;;;4.10;1.42;;;;;;;;;;5028638;28;20078;-55
2022/09/15 03:00:31;;;;;;;4.70;1.40;;;;;;;;;;5030983;28;20041;-56
2022/09/15 03:02:57;;;;;;;9.05;1.70;;;;;;;;;;5029317;28;20018;-55
2022/09/15 03:05:25;;;;;;;4.40;1.83;;;;;;;;;;5029042;28;20511;-55
2022/09/15 03:07:51;;;;;;;3.53;1.75;;;;;;;;;;5028469;28;20029;-56
2022/09/15 03:10:17;;;;;;;3.38;1.85;;;;;;;;;;5030212;28;20129;-55
2022/09/15 03:12:47;;;;;;;4.10;1.77;;;;;;;;;;5029906;28;20103;-55
2022/09/15 03:15:15;;;;;;;2.55;1.70;;;;;;;;;;5027612;28;20030;-55
2022/09/15 03:17:42;;;;;;;5.43;1.73;;;;;;;;;;5030185;28;20029;-55
2022/09/15 03:20:10;;;;;;;3.33;1.80;;;;;;;;;;5034209;28;20029;-55
2022/09/15 03:22:35;;;;;;;3.38;1.65;;;;;;;;;;5029841;28;20029;-55
2022/09/15 03:25:04;;;;;;;6.18;1.83;;;;;;;;;;5030291;28;20036;-55
2022/09/15 03:27:30;;;;;;;2.67;1.80;;;;;;;;;;5029469;28;20036;-55
2022/09/15 03:29:55;;;;;;;2.65;1.55;;;;;;;;;;5027442;28;20033;-55
2022/09/15 03:32:21;;;;;;;3.70;1.65;;;;;;;;;;5027720;28;20119;-55
2022/09/15 03:34:46;;;;;;;3.70;1.70;;;;;;;;;;5031464;28;20053;-56
2022/09/15 03:37:11;;;;;;;2.80;1.38;;;;;;;;;;5027808;28;20025;-56
2022/09/15 03:39:37;;;;;;;1.65;1.27;;;;;;;;;;5027591;28;20033;-54
2022/09/15 03:42:03;;;;;;;4.63;1.50;;;;;;;;;;5028120;28;20029;-54
2022/09/15 03:44:28;;;;;;;5.30;1.40;;;;;;;;;;5033020;28;20029;-55
2022/09/15 03:46:53;;;;;;;2.03;1.67;;;;;;;;;;5028253;28;20491;-55
2022/09/15 03:49:19;;;;;;;1.80;1.45;;;;;;;;;;5028372;28;20461;-53
2022/09/15 03:51:44;;;;;;;2.85;1.58;;;;;;;;;;5028880;28;20133;-53
2022/09/15 03:54:10;;;;;;;3.10;1.73;;;;;;;;;;5027657;28;20014;-55
2022/09/15 03:56:35;;;;;;;3.70;1.60;;;;;;;;;;5028913;28;20022;-55
2022/09/15 03:59:02;;;;;;;4.82;1.50;;;;;;;;;;5033195;28;20534;-55
2022/09/15 04:01:28;;;;;;;5.35;1.60;;;;;;;;;;5028010;28;20392;-54
2022/09/15 04:03:54;;;;;;;4.15;1.80;;;;;;;;;;5031424;28;21791;-54
2022/09/15 04:06:20;;;;;;;2.20;1.52;;;;;;;;;;5026417;28;20095;-55
2022/09/15 04:08:47;;;;;;;4.40;1.60;;;;;;;;;;5027556;28;20029;-54
2022/09/15 04:11:13;;;;;;;2.20;1.50;;;;;;;;;;5031960;28;20495;-55
2022/09/15 04:13:40;;;;;;;1.48;1.30;;;;;;;;;;5027866;28;20033;-54
2022/09/15 04:16:08;;;;;;;1.73;1.40;;;;;;;;;;5032013;28;20625;-54
2022/09/15 04:18:34;;;;;;;3.40;1.50;;;;;;;;;;5026228;28;20045;-55
2022/09/15 04:21:02;;;;;;;6.03;2.20;;;;;;;;;;5030195;28;20202;-55
2022/09/15 04:23:28;;;;;;;7.50;1.60;;;;;;;;;;5030549;28;20033;-55
2022/09/15 04:26:01;;;;;;;1.95;1.48;;;;;;;;;;5028092;28;20117;-55
2022/09/15 04:28:28;;;;;;;4.22;1.60;;;;;;;;;;5028525;28;20525;-54
2022/09/15 04:31:02;;;;;;;5.55;1.73;;;;;;;;;;5027461;28;20044;-55
2022/09/15 04:33:28;;;;;;;3.58;1.55;;;;;;;;;;5026114;28;20053;-55
2022/09/15 04:36:05;;;;;;;2.50;1.60;;;;;;;;;;5032403;28;20037;-56
2022/09/15 04:38:31;;;;;;;4.25;1.33;;;;;;;;;;5027188;28;20147;-58
2022/09/15 04:40:57;;;;;;;2.58;1.40;;;;;;;;;;5032710;28;20594;-58
2022/09/15 04:43:23;;;;;;;3.03;1.35;;;;;;;;;;5027880;28;20602;-59
2022/09/15 04:45:49;;;;;;;2.33;1.33;;;;;;;;;;5034378;28;20403;-58
2022/09/15 04:48:14;;;;;;;2.60;1.33;;;;;;;;;;5039493;28;20036;-58
2022/09/15 04:50:39;;;;;;;2.80;1.35;;;;;;;;;;5030453;28;20439;-59
2022/09/15 04:53:06;;;;;;;1.67;1.48;;;;;;;;;;5030209;28;20060;-60
2022/09/15 04:55:33;;;;;;;1.92;1.30;;;;;;;;;;5028914;28;20022;-59
2022/09/15 04:57:58;;;;;;;2.00;1.65;;;;;;;;;;5025705;28;20030;-59
2022/09/15 05:00:25;;;;;;;2.38;1.25;;;;;;;;;;5028114;28;20095;-59
2022/09/15 05:02:50;;;;;;;2.00;1.40;;;;;;;;;;5027126;28;20095;-59
2022/09/15 05:05:16;;;;;;;2.63;1.40;;;;;;;;;;5028692;28;20439;-58
2022/09/15 05:07:41;;;;;;;5.82;1.60;;;;;;;;;;5028586;28;20104;-58
2022/09/15 05:10:07;;;;;;;3.78;1.45;;;;;;;;;;5028542;28;20021;-58
2022/09/15 05:12:32;;;;;;;5.45;1.40;;;;;;;;;;5028801;28;20576;-58
2022/09/15 05:14:58;;;;;;;2.00;1.38;;;;;;;;;;5028634;28;20108;-59
2022/09/15 05:17:23;;;;;;;3.50;1.70;;;;;;;;;;5028189;28;20033;-58
2022/09/15 05:19:48;;;;;;;3.28;1.48;;;;;;;;;;5028556;28;20037;-58
2022/09/15 05:22:14;;;;;;;4.65;1.50;;;;;;;;;;5026870;28;20036;-58
2022/09/15 05:24:39;;;;;;;2.92;1.52;;;;;;;;;;5045558;28;20311;-58
2022/09/15 05:27:04;;;;;;;3.85;1.60;;;;;;;;;;5027816;28;20018;-58
2022/09/15 05:29:30;;;;;;;5.78;2.88;;;;;;;;;;5028566;28;20148;-58
2022/09/15 05:31:55;;;;;;;2.35;1.77;;;;;;;;;;5027524;28;20036;-58
2022/09/15 05:34:21;;;;;;;4.35;2.22;;;;;;;;;;5028473;28;20021;-58
2022/09/15 05:36:46;;;;;;;3.92;2.05;;;;;;;;;;5027540;28;20549;-58
2022/09/15 05:39:11;;;;;;;5.20;1.60;;;;;;;;;;5028800;28;20032;-58
2022/09/15 05:41:37;;;;;;;2.20;1.65;;;;;;;;;;5030653;28;20120;-58
2022/09/15 05:44:02;;;;;;;1.63;1.33;;;;;;;;;;5024538;28;20045;-59
2022/09/15 05:46:28;;;;;;;2.63;1.55;;;;;;;;;;5031753;28;20076;-60
2022/09/15 05:48:56;;;;;;;2.35;1.88;;;;;;;;;;5031545;28;20025;-59
2022/09/15 05:51:22;;;;;;;2.65;1.60;;;;;;;;;;5030416;28;20033;-59
2022/09/15 05:53:50;;;;;;;5.15;3.03;;;;;;;;;;5031296;28;20047;-59
2022/09/15 05:56:16;;;;;;;3.33;2.08;;;;;;;;;;5031171;28;20033;-59
2022/09/15 05:58:44;;;;;;;3.20;1.58;;;;;;;;;;5036915;28;20021;-58
2022/09/15 06:01:19;;;;;;;5.22;1.77;;;;;;;;;;5033083;28;20107;-58
2022/09/15 06:03:45;;;;;;;5.60;1.80;;;;;;;;;;5033287;28;20180;-59
2022/09/15 06:06:11;;;;;;;3.67;1.70;;;;;;;;;;5030673;28;20507;-59
2022/09/15 06:08:40;;;;;;;3.60;1.90;;;;;;;;;;5037916;28;20029;-59
2022/09/15 06:11:14;;;;;;;3.75;2.22;;;;;;;;;;5030866;28;20025;-61
2022/09/15 06:13:41;;;;;;;1.95;1.67;;;;;;;;;;5030829;28;20348;-62
2022/09/15 06:16:09;;;;;;;3.35;1.73;;;;;;;;;;5030693;28;20021;-62
2022/09/15 06:18:36;;;;;;;5.30;1.55;;;;;;;;;;5030698;28;20406;-62
2022/09/15 06:21:13;;;;;;;4.30;1.85;;;;;;;;;;5028878;28;20036;-62
2022/09/15 06:23:40;;;;;;;2.47;1.63;;;;;;;;;;5030262;28;20129;-61
2022/09/15 06:26:10;;;;;;;2.88;1.50;;;;;;;;;;5030903;28;20383;-61
2022/09/15 06:28:37;;;;;;;2.22;1.50;;;;;;;;;;5030938;28;20033;-60
2022/09/15 06:31:04;;;;;;;2.90;1.77;;;;;;;;;;5030733;28;20029;-61
2022/09/15 06:33:29;;;;;;;3.05;1.70;;;;;;;;;;5030029;28;20037;-60
2022/09/15 06:35:55;;;;;;;3.65;2.03;;;;;;;;;;5029798;28;20025;-60
2022/09/15 06:38:20;;;;;;;1.83;1.60;;;;;;;;;;5031031;28;20094;-60
2022/09/15 06:40:57;;;;;;;3.20;2.15;;;;;;;;;;5030419;28;20461;-60
2022/09/15 06:43:23;;;;;;;2.05;1.60;;;;;;;;;;5030349;28;20026;-60
2022/09/15 06:45:48;;;;;;;3.83;1.58;;;;;;;;;;5029808;28;20523;-61
2022/09/15 06:48:13;;;;;;;1.90;1.58;;;;;;;;;;5029221;28;20201;-61
2022/09/15 06:50:39;;;;;;;2.38;1.60;;;;;;;;;;5030009;28;20103;-61
2022/09/15 06:53:04;;;;;;;2.20;1.60;;;;;;;;;;5029437;28;20021;-61
2022/09/15 06:55:29;;;;;;;4.00;1.60;;;;;;;;;;5030678;28;20026;-60
2022/09/15 06:57:55;;;;;;;2.35;1.80;;;;;;;;;;5028991;28;20068;-61
2022/09/15 07:00:20;;;;;;;3.67;1.50;;;;;;;;;;5062690;28;20041;-61
2022/09/15 07:02:49;;;;;;;3.25;1.58;;;;;;;;;;5029024;28;20036;-61
2022/09/15 07:05:14;;;;;;;3.17;1.50;;;;;;;;;;5032292;28;20044;-60
2022/09/15 07:07:40;;;;;;;3.65;1.88;;;;;;;;;;5029773;28;20029;-61
2022/09/15 07:10:06;;;;;;;3.42;1.50;;;;;;;;;;5030140;28;20017;-61
2022/09/15 07:12:31;;;;;;;2.00;1.65;;;;;;;;;;5028277;28;20083;-61
2022/09/15 07:14:57;;;;;;;2.17;1.55;;;;;;;;;;5030027;28;20052;-61
2022/09/15 07:17:22;;;;;;;5.60;1.58;;;;;;;;;;5030500;28;20121;-60
2022/09/15 07:19:48;;;;;;;2.10;1.67;;;;;;;;;;5029640;28;20336;-60
2022/09/15 07:22:13;;;;;;;3.10;1.60;;;;;;;;;;5028912;28;20471;-60
2022/09/15 07:24:39;;;;;;;4.30;1.95;;;;;;;;;;5030499;28;20029;-60
2022/09/15 07:27:05;;;;;;;2.45;1.70;;;;;;;;;;5029300;28;20033;-60
2022/09/15 07:29:30;;;;;;;2.65;1.98;;;;;;;;;;5030027;28;20031;-59
2022/09/15 07:31:56;;;;;;;3.90;2.15;;;;;;;;;;5028693;28;20017;-59
2022/09/15 07:34:22;;;;;;;5.30;2.58;;;;;;;;;;5027273;28;20403;-59
2022/09/15 07:36:47;;;;;;;4.95;1.98;;;;;;;;;;5028931;28;20022;-59
2022/09/15 07:39:13;;;;;;;3.83;1.90;;;;;;;;;;5029577;28;20495;-59
2022/09/15 07:41:38;;;;;;;1.98;1.60;;;;;;;;;;5025568;28;20120;-59
2022/09/15 07:44:06;;;;;;;3.60;1.98;;;;;;;;;;5029329;28;20441;-59
2022/09/15 07:46:32;;;;;;;3.50;1.67;;;;;;;;;;5029204;28;20035;-60
2022/09/15 07:48:59;;;;;;;3.95;1.95;;;;;;;;;;5029366;28;20324;-60
2022/09/15 07:51:25;;;;;;;3.28;1.90;;;;;;;;;;5027912;28;20030;-59
2022/09/15 07:53:51;;;;;;;3.65;1.90;;;;;;;;;;5029055;28;20029;-61
2022/09/15 07:56:17;;;;;;;4.10;1.80;;;;;;;;;;5028839;28;20112;-59
2022/09/15 07:58:43;;;;;;;2.33;1.70;;;;;;;;;;5030888;28;20112;-60
2022/09/15 08:01:10;;;;;;;9.05;2.15;;;;;;;;;;5029123;28;20715;-58
2022/09/15 08:03:39;;;;;;;4.13;1.92;;;;;;;;;;5027570;28;20043;-60
2022/09/15 08:06:05;;;;;;;;;;;;;;;;;;5030838;28;20026;-60
2022/09/15 08:08:31;;;;;;;1.83;1.60;;;;;;;;;;5028974;28;20397;-61
2022/09/15 08:10:56;;;;;;;2.47;1.83;;;;;;;;;;5029113;28;20036;-60
2022/09/15 08:13:23;;;;;;;6.13;2.40;;;;;;;;;;5026156;28;20037;-60
2022/09/15 08:15:48;;;;;;;3.33;1.80;;;;;;;;;;5028795;28;20044;-61
2022/09/15 08:18:14;;;;;;;3.85;2.15;;;;;;;;;;5029266;28;20483;-61
2022/09/15 08:20:41;;;;;;;3.90;2.03;;;;;;;;;;5028323;28;20075;-62
2022/09/15 08:23:07;;;;;;;3.60;1.75;;;;;;;;;;5028015;28;20033;-62
2022/09/15 08:25:33;;;;;;;3.95;2.10;;;;;;;;;;5028555;28;20033;-62
2022/09/15 08:27:58;;;;;;;2.95;2.08;;;;;;;;;;5028631;28;20032;-61
2022/09/15 08:30:25;;;;;;;4.20;2.33;;;;;;;;;;5029405;28;20375;-61
2022/09/15 08:32:50;;;;;;;1.98;1.67;;;;;;;;;;5028158;28;20447;-61
2022/09/15 08:35:16;;;;;;;1.65;1.40;;;;;;;;;;5028335;28;20140;-60
2022/09/15 08:37:42;;;;;;;2.50;1.60;;;;;;;;;;5028180;28;20525;-60
2022/09/15 08:40:21;;;;;;;1.88;1.23;;;;;;;;;;5029002;28;20096;-60
2022/09/15 08:42:49;;;;;;;3.10;1.60;;;;;;;;;;5026111;28;20029;-60
2022/09/15 08:45:26;;;;;;;2.15;1.30;;;;;;;;;;5028231;28;20124;-60
2022/09/15 08:47:57;;;;;;;2.15;1.60;;;;;;;;;;5028689;28;20029;-60
2022/09/15 08:50:34;;;;;;;2.92;1.55;;;;;;;;;;5028645;28;20476;-61
2022/09/15 08:53:10;;;;;;;4.00;1.80;;;;;;;;;;5028409;28;20037;-60
2022/09/15 08:55:40;;;;;;;1.95;1.20;;;;;;;;;;5028074;28;20025;-60
2022/09/15 08:58:12;;;;;;;1.30;1.20;;;;;;;;;;5034469;28;20427;-60
2022/09/15 09:00:39;;;;;;;1.77;1.20;;;;;;;;;;5029264;28;20095;-62
2022/09/15 09:03:42;;;;;;;1.90;1.40;;;;;;;;;;5030658;28;20491;-61
2022/09/15 09:06:14;;;;;;;1.73;1.30;;;;;;;;;;5036167;28;20042;-62
2022/09/15 09:09:00;;;;;;;3.35;1.67;;;;;;;;;;5028417;28;20033;-61
2022/09/15 09:11:55;;;;;;;3.08;1.10;;;;;;;;;;5027582;28;20029;-61
2022/09/15 09:14:27;;;;;;;1.63;1.30;;;;;;;;;;5025441;28;20060;-60
2022/09/15 09:17:08;;;;;;;3.33;1.05;;;;;;;;;;5032197;28;20108;-60
2022/09/15 09:19:52;;;;;;;1.30;1.20;;;;;;;;;;5028883;28;20108;-59
2022/09/15 09:22:31;;;;;;;2.83;1.83;;;;;;;;;;5031769;28;20057;-60
2022/09/15 09:25:01;;;;;;;3.97;2.13;;;;;;;;;;5031484;28;20025;-59
2022/09/15 09:27:29;;;;;;;1.67;0.90;;;;;;;;;;5026528;28;20083;-59
2022/09/15 09:30:01;;;;;;;1.67;0.80;;;;;;;;;;5031666;28;20091;-59
2022/09/15 09:32:37;;;;;;;1.92;0.80;;;;;;;;;;5031098;28;20033;-59
2022/09/15 09:35:34;;;;;;;1.52;1.17;;;;;;;;;;5031656;28;20029;-59
2022/09/15 09:38:01;;;;;;;1.52;1.00;;;;;;;;;;5023633;28;20037;-58
2022/09/15 09:40:27;;;;;;;2.97;1.08;;;;;;;;;;5031843;28;20387;-59
2022/09/15 09:42:53;;;;;;;2.28;1.30;;;;;;;;;;5030674;28;20051;-59
2022/09/15 09:45:18;;;;;;;1.70;1.20;;;;;;;;;;5031042;28;20558;-58
2022/09/15 09:47:45;;;;;;;1.13;0.90;;;;;;;;;;5031784;28;20029;-58
2022/09/15 09:50:41;;;;;;;0.95;0.88;;;;;;;;;;5031524;28;20037;-58
2022/09/15 09:53:29;;;;;;;2.10;1.33;;;;;;;;;;5028250;28;20032;-58
2022/09/15 09:56:14;;;;;;;1.38;1.20;;;;;;;;;;5030825;28;20044;-58
2022/09/15 09:58:40;;;;;;;1.60;1.20;;;;;;;;;;5031879;28;20022;-58
2022/09/15 10:01:24;;;;;;;3.50;1.27;;;;;;;;;;5031779;28;20494;-60
2022/09/15 10:04:17;;;;;;;2.85;1.67;;;;;;;;;;5031035;28;20038;-58
2022/09/15 10:06:42;;;;;;;3.22;1.83;;;;;;;;;;5030531;28;20029;-58
2022/09/15 10:09:14;;;;;;;2.00;1.30;;;;;;;;;;5031302;28;20121;-58
2022/09/15 10:11:51;;;;;;;1.50;1.35;;;;;;;;;;5027570;28;20064;-58
2022/09/15 10:14:25;;;;;;;2.33;1.30;;;;;;;;;;5031131;28;20196;-58
2022/09/15 10:17:13;;;;;;;2.42;2.22;;;;;;;;;;5030496;28;20033;-58
2022/09/15 10:19:54;;;;;;;1.35;1.25;;;;;;;;;;5031195;28;20546;-58
2022/09/15 10:22:39;;;;;;;2.22;1.13;;;;;;;;;;5029802;28;20335;-59
2022/09/15 10:25:20;;;;;;;1.80;1.33;;;;;;;;;;5023384;28;20068;-58
2022/09/15 10:28:08;;;;;;;1.45;1.23;;;;;;;;;;5030746;28;20035;-58
2022/09/15 10:30:35;;;;;;;2.27;1.43;;;;;;;;;;5029200;28;20395;-58
2022/09/15 10:33:23;;;;;;;1.50;1.23;;;;;;;;;;5022394;28;20108;-58
2022/09/15 10:35:49;;;;;;;2.42;1.40;;;;;;;;;;5032005;28;20084;-58
2022/09/15 10:38:28;;;;;;;1.20;1.10;;;;;;;;;;5030185;28;20564;-58
2022/09/15 10:41:25;;;;;;;3.47;1.40;;;;;;;;;;5030883;28;20604;-58
2022/09/15 10:43:54;;;;;;;1.63;1.50;;;;;;;;;;5034077;28;20037;-58
2022/09/15 10:46:53;;;;;;;1.40;1.30;;;;;;;;;;5030203;28;20056;-58
2022/09/15 10:49:36;;;;;;;1.65;1.40;;;;;;;;;;5031543;28;20064;-58
2022/09/15 10:52:23;;;;;;;1.45;1.30;;;;;;;;;;5026689;28;20316;-58
2022/09/15 10:54:57;;;;;;;3.20;1.55;;;;;;;;;;5032260;28;20143;-58
2022/09/15 10:57:33;;;;;;;1.63;1.48;;;;;;;;;;5031050;28;20037;-58
2022/09/15 11:00:11;;;;;;;2.28;1.40;;;;;;;;;;5030902;28;20465;-58
2022/09/15 11:03:04;;;;;;;2.75;1.67;;;;;;;;;;5029445;28;20092;-57
2022/09/15 11:05:48;;;;;;;3.45;2.15;;;;;;;;;;5029984;28;20032;-58
2022/09/15 11:08:19;;;;;;;2.17;1.60;;;;;;;;;;5029677;28;20033;-58
2022/09/15 11:11:06;;;;;;;3.40;1.60;;;;;;;;;;5029741;28;20060;-59
2022/09/15 11:13:56;;;;;;;1.83;1.58;;;;;;;;;;5029771;28;20036;-59
2022/09/15 11:16:40;;;;;;;3.33;1.80;;;;;;;;;;5024484;28;20027;-59
2022/09/15 11:19:08;;;;;;;2.30;1.75;;;;;;;;;;5030218;28;20029;-59
2022/09/15 11:21:36;;;;;;;2.03;1.60;;;;;;;;;;5028415;28;20029;-59
2022/09/15 11:24:20;;;;;;;3.17;1.75;;;;;;;;;;5029819;28;20091;-59
2022/09/15 11:27:09;;;;;;;2.45;1.80;;;;;;;;;;5029595;28;20029;-59
2022/09/15 11:29:41;;;;;;;3.92;1.95;;;;;;;;;;5023961;28;20127;-59
2022/09/15 11:32:14;;;;;;;1.85;1.52;;;;;;;;;;5032549;28;20087;-59
2022/09/15 11:34:52;;;;;;;3.25;1.90;;;;;;;;;;5029539;28;20099;-59
2022/09/15 11:37:28;;;;;;;2.47;1.90;;;;;;;;;;5026116;28;20056;-59
2022/09/15 11:39:53;;;;;;;3.10;2.10;;;;;;;;;;5029272;28;20025;-59
2022/09/15 11:42:56;;;;;;;2.75;1.27;;;;;;;;;;5028600;28;20372;-59
2022/09/15 11:45:29;;;;;;;0.70;0.70;;;;;;;;;;4979412;28;20045;-60
2022/09/15 11:48:03;;;;;;;1.85;0.60;;;;;;;;;;5022513;28;20033;-61
2022/09/15 11:50:33;;;;;;;1.45;0.80;;;;;;;;;;5026396;28;20049;-64
2022/09/15 11:53:18;;;;;;;2.03;0.70;;;;;;;;;;5031640;28;20029;-64
2022/09/15 11:56:12;;;;;;;1.60;0.70;;;;;;;;;;5033939;28;20024;-63
2022/09/15 11:58:52;;;;;;;1.15;1.02;;;;;;;;;;5021611;28;20140;-64
2022/09/15 12:01:30;;;;;;;3.15;1.17;;;;;;;;;;5023515;28;20041;-63
2022/09/15 12:04:07;;;;;;;1.25;1.10;;;;;;;;;;5030269;28;20436;-62
2022/09/15 12:06:42;;;;;;;4.63;1.30;;;;;;;;;;5028387;28;20053;-63
2022/09/15 12:09:14;;;;;;;1.95;1.45;;;;;;;;;;5028682;28;20028;-62
2022/09/15 12:11:46;;;;;;;1.63;1.45;;;;;;;;;;5029085;28;20032;-63
2022/09/15 12:14:20;;;;;;;1.77;1.08;;;;;;;;;;5028953;28;20550;-63
2022/09/15 12:16:46;;;;;;;1.35;1.20;;;;;;;;;;5028427;28;20044;-63
2022/09/15 12:19:32;;;;;;;2.28;1.45;;;;;;;;;;5032774;28;20022;-63
2022/09/15 12:22:05;;;;;;;3.03;1.30;;;;;;;;;;5012791;28;20057;-63
2022/09/15 12:24:36;;;;;;;3.08;1.20;;;;;;;;;;5022762;28;20029;-63
2022/09/15 12:27:03;;;;;;;2.00;1.40;;;;;;;;;;5028298;28;20566;-62
2022/09/15 12:29:36;;;;;;;1.70;1.40;;;;;;;;;;5029222;28;20095;-62
2022/09/15 12:32:33;;;;;;;4.03;2.50;;;;;;;;;;5037427;28;20047;-61
2022/09/15 12:35:14;;;;;;;2.50;2.30;;;;;;;;;;5020420;28;20044;-60
2022/09/15 12:38:11;;;;;;;2.65;1.92;;;;;;;;;;5028533;28;20025;-60
2022/09/15 12:40:40;;;;;;;3.55;2.10;;;;;;;;;;5024669;28;20128;-59
2022/09/15 12:43:12;;;;;;;2.38;2.03;;;;;;;;;;5027427;28;20090;-60
2022/09/15 12:45:40;;;;;;;3.58;2.45;;;;;;;;;;5027747;28;20470;-59
2022/09/15 12:48:19;;;;;;;3.20;2.40;;;;;;;;;;5029105;28;20021;-59
2022/09/15 12:50:53;;;;;;;3.42;2.63;;;;;;;;;;5032195;28;20056;-60
2022/09/15 12:53:29;;;;;;;4.93;3.13;;;;;;;;;;5036755;28;20046;-60
2022/09/15 12:55:58;;;;;;;5.25;3.92;;;;;;;;;;5032146;28;20136;-59
2022/09/15 12:58:32;;;;;;;6.93;3.00;;;;;;;;;;5032913;28;20479;-60
2022/09/15 13:01:28;;;;;;;5.32;3.10;;;;;;;;;;5032939;28;20033;-60
2022/09/15 13:03:57;;;;;;;3.72;2.80;;;;;;;;;;5032599;28;20052;-59
2022/09/15 13:06:33;;;;;;;3.75;2.88;;;;;;;;;;5032190;28;20099;-59
2022/09/15 13:09:02;;;;;;;6.60;3.13;;;;;;;;;;5032840;28;20032;-59
2022/09/15 13:11:35;;;;;;;4.50;3.08;;;;;;;;;;5031341;28;20063;-59
2022/09/15 13:14:07;;;;;;;4.60;3.17;;;;;;;;;;5024521;28;20371;-59
2022/09/15 13:16:50;;;;;;;4.25;3.15;;;;;;;;;;5031810;28;20446;-59
2022/09/15 13:19:29;;;;;;;5.22;3.47;;;;;;;;;;5032011;28;20483;-59
2022/09/15 13:22:10;;;;;;;4.57;3.90;;;;;;;;;;5030201;28;20021;-58
2022/09/15 13:25:00;;;;;;;6.38;3.60;;;;;;;;;;5031824;28;20026;-58
2022/09/15 13:27:35;;;;;;;5.45;3.83;;;;;;;;;;5039607;28;20060;-58
2022/09/15 13:30:07;;;;;;;6.47;4.18;;;;;;;;;;5029056;28;20025;-58
2022/09/15 13:32:42;;;;;;;5.03;3.83;;;;;;;;;;5031241;28;20032;-58
2022/09/15 13:35:13;;;;;;;5.68;3.88;;;;;;;;;;5030976;28;20021;-58
2022/09/15 13:37:47;;;;;;;5.03;3.97;;;;;;;;;;5031070;28;20075;-58
2022/09/15 13:40:47;;;;;;;6.00;3.60;;;;;;;;;;5031721;28;20436;-58
2022/09/15 13:43:28;;;;;;;6.88;4.32;;;;;;;;;;5029218;28;20101;-58
2022/09/15 13:46:05;;;;;;;4.95;3.67;;;;;;;;;;5031159;28;20033;-58
2022/09/15 13:48:46;;;;;;;10.77;4.13;;;;;;;;;;5028954;28;20025;-58
2022/09/15 13:51:22;;;;;;;5.28;3.75;;;;;;;;;;5036620;28;20025;-59
2022/09/15 13:53:56;;;;;;;5.97;4.10;;;;;;;;;;5031893;28;20028;-58
2022/09/15 13:56:36;;;;;;;5.97;3.50;;;;;;;;;;5031359;28;20029;-58
2022/09/15 13:59:05;;;;;;;9.32;3.90;;;;;;;;;;5038646;28;20095;-58
2022/09/15 14:01:39;;;;;;;4.97;3.10;;;;;;;;;;5030070;28;20037;-58
2022/09/15 14:04:10;;;;;;;6.93;3.70;;;;;;;;;;5031070;28;20105;-58
2022/09/15 14:06:39;;;;;;;7.97;4.45;;;;;;;;;;5029549;28;20021;-58
2022/09/15 14:09:15;;;;;;;5.80;3.95;;;;;;;;;;5025851;28;20045;-58
2022/09/15 14:11:41;;;;;;;9.27;5.10;;;;;;;;;;5030553;28;20475;-58
2022/09/15 14:14:26;;;;;;;7.28;5.13;;;;;;;;;;5031310;28;20029;-58
2022/09/15 14:16:54;;;;;;;6.18;4.45;;;;;;;;;;5030658;28;20036;-58
2022/09/15 14:19:34;;;;;;;7.28;4.25;;;;;;;;;;5031348;28;20060;-58
2022/09/15 14:22:16;;;;;;;8.38;4.90;;;;;;;;;;5030316;28;20070;-58
2022/09/15 14:24:42;;;;;;;9.35;4.55;;;;;;;;;;5030722;28;20060;-58
2022/09/15 14:27:09;;;;;;;8.05;5.18;;;;;;;;;;5030439;28;20491;-58
2022/09/15 14:29:42;;;;;;;9.73;5.57;;;;;;;;;;5030880;28;20025;-58
2022/09/15 14:32:17;;;;;;;7.93;4.93;;;;;;;;;;5030263;28;20025;-58
2022/09/15 14:34:43;;;;;;;9.40;5.82;;;;;;;;;;5029620;28;20021;-58
2022/09/15 14:37:27;;;;;;;9.05;5.13;;;;;;;;;;5029740;28;20026;-58
2022/09/15 14:39:57;;;;;;;13.88;7.38;;;;;;;;;;5034461;28;20041;-58
2022/09/15 14:42:33;;;;;;;11.75;5.88;;;;;;;;;;5034152;28;20037;-58
2022/09/15 14:45:20;;;;;;;9.10;5.50;;;;;;;;;;5030832;28;20033;-58
2022/09/15 14:47:46;;;;;;;11.10;4.88;;;;;;;;;;5030658;28;20037;-58
2022/09/15 14:50:18;;;;;;;8.00;5.03;;;;;;;;;;5030525;28;20101;-58
2022/09/15 14:53:17;;;;;;;9.60;4.53;;;;;;;;;;5029400;28;20468;-58
2022/09/15 14:55:51;;;;;;;7.57;3.97;;;;;;;;;;5029482;28;20590;-59
2022/09/15 14:58:47;;;;;;;5.05;3.10;;;;;;;;;;5026900;28;20041;-58
2022/09/15 15:01:18;;;;;;;8.10;4.05;;;;;;;;;;5030724;28;20037;-58
2022/09/15 15:03:55;;;;;;;7.40;3.67;;;;;;;;;;5029721;28;20069;-58
2022/09/15 15:06:53;;;;;;;6.90;3.25;;;;;;;;;;5021012;28;20630;-58
2022/09/15 15:09:36;;;;;;;5.32;3.25;;;;;;;;;;5024844;28;20298;-58
2022/09/15 15:12:36;;;;;;;4.45;3.03;;;;;;;;;;5023646;28;20025;-58
2022/09/15 15:15:03;;;;;;;4.72;3.13;;;;;;;;;;5048572;28;20036;-59